sensor_id;sensor_type;location;lat;lon;timestamp;P1;durP1;ratioP1;P2;durP2;ratioP2
40951;SDS011;26682;51.660;19.338;2024-02-23T00:00:53;17.45;;;8.48;;
40951;SDS011;26682;51.660;19.338;2024-02-23T00:03:56;9.40;;;6.43;;
40951;SDS011;26682;51.660;19.338;2024-02-23T00:06:39;11.77;;;5.85;;
40951;SDS011;26682;51.660;19.338;2024-02-23T00:09:21;8.60;;;5.25;;
40951;SDS011;26682;51.660;19.338;2024-02-23T00:12:04;8.18;;;5.50;;
40951;SDS011;26682;51.660;19.338;2024-02-23T00:14:47;13.68;;;6.43;;
40951;SDS011;26682;51.660;19.338;2024-02-23T00:17:29;11.27;;;5.22;;
40951;SDS011;26682;51.660;19.338;2024-02-23T00:20:12;8.90;;;5.15;;
40951;SDS011;26682;51.660;19.338;2024-02-23T00:22:57;11.55;;;5.78;;
40951;SDS011;26682;51.660;19.338;2024-02-23T00:25:39;10.63;;;5.68;;
40951;SDS011;26682;51.660;19.338;2024-02-23T00:28:22;6.70;;;4.55;;
40951;SDS011;26682;51.660;19.338;2024-02-23T00:31:04;8.82;;;5.72;;
40951;SDS011;26682;51.660;19.338;2024-02-23T00:33:46;7.07;;;4.32;;
40951;SDS011;26682;51.660;19.338;2024-02-23T00:36:29;7.38;;;5.15;;
40951;SDS011;26682;51.660;19.338;2024-02-23T00:39:11;7.20;;;4.60;;
40951;SDS011;26682;51.660;19.338;2024-02-23T00:41:54;7.53;;;4.82;;
40951;SDS011;26682;51.660;19.338;2024-02-23T00:44:36;7.85;;;5.70;;
40951;SDS011;26682;51.660;19.338;2024-02-23T00:47:19;8.73;;;5.10;;
40951;SDS011;26682;51.660;19.338;2024-02-23T00:50:01;13.65;;;6.50;;
40951;SDS011;26682;51.660;19.338;2024-02-23T00:52:44;7.18;;;4.63;;
40951;SDS011;26682;51.660;19.338;2024-02-23T00:55:27;5.40;;;4.18;;
40951;SDS011;26682;51.660;19.338;2024-02-23T00:58:09;9.43;;;5.32;;
40951;SDS011;26682;51.660;19.338;2024-02-23T01:00:52;10.35;;;5.22;;
40951;SDS011;26682;51.660;19.338;2024-02-23T01:03:35;8.50;;;5.00;;
40951;SDS011;26682;51.660;19.338;2024-02-23T01:06:18;5.43;;;4.03;;
40951;SDS011;26682;51.660;19.338;2024-02-23T01:09:00;7.70;;;5.03;;
40951;SDS011;26682;51.660;19.338;2024-02-23T01:11:43;8.45;;;5.03;;
40951;SDS011;26682;51.660;19.338;2024-02-23T01:14:26;9.68;;;6.18;;
40951;SDS011;26682;51.660;19.338;2024-02-23T01:17:08;7.63;;;5.05;;
40951;SDS011;26682;51.660;19.338;2024-02-23T01:19:51;7.43;;;4.90;;
40951;SDS011;26682;51.660;19.338;2024-02-23T01:22:34;9.15;;;5.15;;
40951;SDS011;26682;51.660;19.338;2024-02-23T01:25:16;8.18;;;4.97;;
40951;SDS011;26682;51.660;19.338;2024-02-23T01:27:58;7.93;;;4.90;;
40951;SDS011;26682;51.660;19.338;2024-02-23T01:30:41;6.88;;;5.15;;
40951;SDS011;26682;51.660;19.338;2024-02-23T01:33:24;10.48;;;4.93;;
40951;SDS011;26682;51.660;19.338;2024-02-23T01:36:06;8.60;;;5.25;;
40951;SDS011;26682;51.660;19.338;2024-02-23T01:38:52;7.77;;;4.60;;
40951;SDS011;26682;51.660;19.338;2024-02-23T01:41:34;7.50;;;4.97;;
40951;SDS011;26682;51.660;19.338;2024-02-23T01:44:17;7.18;;;4.82;;
40951;SDS011;26682;51.660;19.338;2024-02-23T01:46:59;7.10;;;4.32;;
40951;SDS011;26682;51.660;19.338;2024-02-23T01:49:42;7.28;;;4.88;;
40951;SDS011;26682;51.660;19.338;2024-02-23T01:52:25;8.82;;;4.82;;
40951;SDS011;26682;51.660;19.338;2024-02-23T01:55:08;7.82;;;5.15;;
40951;SDS011;26682;51.660;19.338;2024-02-23T01:57:50;6.53;;;5.07;;
40951;SDS011;26682;51.660;19.338;2024-02-23T02:00:33;7.78;;;5.03;;
40951;SDS011;26682;51.660;19.338;2024-02-23T02:03:17;7.60;;;4.75;;
40951;SDS011;26682;51.660;19.338;2024-02-23T02:06:00;7.47;;;5.18;;
40951;SDS011;26682;51.660;19.338;2024-02-23T02:08:42;7.43;;;5.40;;
40951;SDS011;26682;51.660;19.338;2024-02-23T02:11:25;9.60;;;4.43;;
40951;SDS011;26682;51.660;19.338;2024-02-23T02:14:07;7.78;;;5.18;;
40951;SDS011;26682;51.660;19.338;2024-02-23T02:16:49;8.85;;;5.68;;
40951;SDS011;26682;51.660;19.338;2024-02-23T02:19:32;8.93;;;6.28;;
40951;SDS011;26682;51.660;19.338;2024-02-23T02:22:14;10.25;;;6.20;;
40951;SDS011;26682;51.660;19.338;2024-02-23T02:24:56;7.72;;;5.38;;
40951;SDS011;26682;51.660;19.338;2024-02-23T02:27:39;9.32;;;5.40;;
40951;SDS011;26682;51.660;19.338;2024-02-23T02:30:21;8.90;;;6.13;;
40951;SDS011;26682;51.660;19.338;2024-02-23T02:33:04;9.32;;;5.72;;
40951;SDS011;26682;51.660;19.338;2024-02-23T02:35:47;6.72;;;5.07;;
40951;SDS011;26682;51.660;19.338;2024-02-23T02:38:30;7.70;;;5.82;;
40951;SDS011;26682;51.660;19.338;2024-02-23T02:41:12;7.88;;;5.20;;
40951;SDS011;26682;51.660;19.338;2024-02-23T02:43:55;8.50;;;5.53;;
40951;SDS011;26682;51.660;19.338;2024-02-23T02:46:37;13.85;;;8.73;;
40951;SDS011;26682;51.660;19.338;2024-02-23T02:49:20;8.82;;;6.60;;
40951;SDS011;26682;51.660;19.338;2024-02-23T02:52:02;10.07;;;6.57;;
40951;SDS011;26682;51.660;19.338;2024-02-23T02:54:45;9.52;;;6.78;;
40951;SDS011;26682;51.660;19.338;2024-02-23T02:57:27;13.98;;;7.40;;
40951;SDS011;26682;51.660;19.338;2024-02-23T03:00:10;8.63;;;6.15;;
40951;SDS011;26682;51.660;19.338;2024-02-23T03:02:53;8.32;;;6.40;;
40951;SDS011;26682;51.660;19.338;2024-02-23T03:05:35;6.93;;;6.10;;
40951;SDS011;26682;51.660;19.338;2024-02-23T03:08:18;8.88;;;6.35;;
40951;SDS011;26682;51.660;19.338;2024-02-23T03:11:00;9.90;;;7.07;;
40951;SDS011;26682;51.660;19.338;2024-02-23T03:13:43;9.10;;;6.82;;
40951;SDS011;26682;51.660;19.338;2024-02-23T03:16:25;10.57;;;6.80;;
40951;SDS011;26682;51.660;19.338;2024-02-23T03:19:09;7.65;;;6.50;;
40951;SDS011;26682;51.660;19.338;2024-02-23T03:21:51;9.77;;;6.72;;
40951;SDS011;26682;51.660;19.338;2024-02-23T03:24:33;7.72;;;6.35;;
40951;SDS011;26682;51.660;19.338;2024-02-23T03:27:16;9.75;;;7.20;;
40951;SDS011;26682;51.660;19.338;2024-02-23T03:29:58;8.55;;;6.68;;
40951;SDS011;26682;51.660;19.338;2024-02-23T03:32:41;8.00;;;6.15;;
40951;SDS011;26682;51.660;19.338;2024-02-23T03:35:24;7.72;;;6.00;;
40951;SDS011;26682;51.660;19.338;2024-02-23T03:38:07;11.50;;;7.30;;
40951;SDS011;26682;51.660;19.338;2024-02-23T03:40:51;12.25;;;7.88;;
40951;SDS011;26682;51.660;19.338;2024-02-23T03:43:33;8.02;;;6.70;;
40951;SDS011;26682;51.660;19.338;2024-02-23T03:46:16;7.93;;;6.80;;
40951;SDS011;26682;51.660;19.338;2024-02-23T03:48:59;8.23;;;6.65;;
40951;SDS011;26682;51.660;19.338;2024-02-23T03:51:42;8.55;;;6.65;;
40951;SDS011;26682;51.660;19.338;2024-02-23T03:54:24;11.50;;;7.60;;
40951;SDS011;26682;51.660;19.338;2024-02-23T03:57:06;8.75;;;6.50;;
40951;SDS011;26682;51.660;19.338;2024-02-23T03:59:52;10.27;;;7.50;;
40951;SDS011;26682;51.660;19.338;2024-02-23T04:02:35;15.85;;;10.98;;
40951;SDS011;26682;51.660;19.338;2024-02-23T04:05:18;14.88;;;8.70;;
40951;SDS011;26682;51.660;19.338;2024-02-23T04:08:01;10.48;;;7.45;;
40951;SDS011;26682;51.660;19.338;2024-02-23T04:10:44;14.63;;;9.65;;
40951;SDS011;26682;51.660;19.338;2024-02-23T04:13:26;9.48;;;6.63;;
40951;SDS011;26682;51.660;19.338;2024-02-23T04:16:09;9.70;;;7.50;;
40951;SDS011;26682;51.660;19.338;2024-02-23T04:18:52;10.55;;;6.90;;
40951;SDS011;26682;51.660;19.338;2024-02-23T04:21:35;11.60;;;8.07;;
40951;SDS011;26682;51.660;19.338;2024-02-23T04:24:17;12.70;;;7.40;;
40951;SDS011;26682;51.660;19.338;2024-02-23T04:27:00;10.65;;;7.95;;
40951;SDS011;26682;51.660;19.338;2024-02-23T04:29:42;10.40;;;7.00;;
40951;SDS011;26682;51.660;19.338;2024-02-23T04:32:25;10.90;;;7.30;;
40951;SDS011;26682;51.660;19.338;2024-02-23T04:35:07;9.85;;;7.28;;
40951;SDS011;26682;51.660;19.338;2024-02-23T04:37:50;10.55;;;7.85;;
40951;SDS011;26682;51.660;19.338;2024-02-23T04:40:32;12.45;;;7.38;;
40951;SDS011;26682;51.660;19.338;2024-02-23T04:43:15;9.48;;;6.47;;
40951;SDS011;26682;51.660;19.338;2024-02-23T04:45:57;9.18;;;6.47;;
40951;SDS011;26682;51.660;19.338;2024-02-23T04:48:40;9.15;;;6.93;;
40951;SDS011;26682;51.660;19.338;2024-02-23T04:51:23;10.55;;;8.13;;
40951;SDS011;26682;51.660;19.338;2024-02-23T04:54:05;9.25;;;6.72;;
40951;SDS011;26682;51.660;19.338;2024-02-23T04:56:48;10.80;;;8.07;;
40951;SDS011;26682;51.660;19.338;2024-02-23T04:59:32;10.07;;;6.82;;
40951;SDS011;26682;51.660;19.338;2024-02-23T05:02:14;8.82;;;6.57;;
40951;SDS011;26682;51.660;19.338;2024-02-23T05:04:58;8.82;;;5.55;;
40951;SDS011;26682;51.660;19.338;2024-02-23T05:07:40;7.45;;;6.25;;
40951;SDS011;26682;51.660;19.338;2024-02-23T05:10:23;7.97;;;5.55;;
40951;SDS011;26682;51.660;19.338;2024-02-23T05:13:05;8.07;;;6.03;;
40951;SDS011;26682;51.660;19.338;2024-02-23T05:15:48;6.97;;;5.35;;
40951;SDS011;26682;51.660;19.338;2024-02-23T05:18:30;8.32;;;6.50;;
40951;SDS011;26682;51.660;19.338;2024-02-23T05:21:16;6.30;;;4.95;;
40951;SDS011;26682;51.660;19.338;2024-02-23T05:23:58;7.53;;;5.78;;
40951;SDS011;26682;51.660;19.338;2024-02-23T05:26:41;7.30;;;5.72;;
40951;SDS011;26682;51.660;19.338;2024-02-23T05:29:26;7.60;;;6.15;;
40951;SDS011;26682;51.660;19.338;2024-02-23T05:32:08;8.35;;;6.88;;
40951;SDS011;26682;51.660;19.338;2024-02-23T05:34:52;7.53;;;6.75;;
40951;SDS011;26682;51.660;19.338;2024-02-23T05:37:36;7.43;;;6.10;;
40951;SDS011;26682;51.660;19.338;2024-02-23T05:40:21;6.60;;;5.28;;
40951;SDS011;26682;51.660;19.338;2024-02-23T05:43:04;6.53;;;5.75;;
40951;SDS011;26682;51.660;19.338;2024-02-23T05:45:47;7.85;;;6.25;;
40951;SDS011;26682;51.660;19.338;2024-02-23T05:48:29;7.63;;;6.20;;
40951;SDS011;26682;51.660;19.338;2024-02-23T05:51:12;7.10;;;5.88;;
40951;SDS011;26682;51.660;19.338;2024-02-23T05:53:54;7.20;;;5.88;;
40951;SDS011;26682;51.660;19.338;2024-02-23T05:56:37;9.18;;;6.85;;
40951;SDS011;26682;51.660;19.338;2024-02-23T05:59:19;8.82;;;6.43;;
40951;SDS011;26682;51.660;19.338;2024-02-23T06:02:02;8.18;;;6.50;;
40951;SDS011;26682;51.660;19.338;2024-02-23T06:04:45;10.07;;;7.35;;
40951;SDS011;26682;51.660;19.338;2024-02-23T06:07:27;15.32;;;10.45;;
40951;SDS011;26682;51.660;19.338;2024-02-23T06:10:13;13.07;;;10.27;;
40951;SDS011;26682;51.660;19.338;2024-02-23T06:12:55;9.57;;;8.15;;
40951;SDS011;26682;51.660;19.338;2024-02-23T06:15:40;23.75;;;8.98;;
40951;SDS011;26682;51.660;19.338;2024-02-23T06:18:23;19.15;;;8.27;;
40951;SDS011;26682;51.660;19.338;2024-02-23T06:21:15;17.15;;;8.20;;
40951;SDS011;26682;51.660;19.338;2024-02-23T06:24:02;13.10;;;8.98;;
40951;SDS011;26682;51.660;19.338;2024-02-23T06:26:44;17.85;;;10.07;;
40951;SDS011;26682;51.660;19.338;2024-02-23T06:29:28;25.20;;;11.80;;
40951;SDS011;26682;51.660;19.338;2024-02-23T06:32:11;7.82;;;6.60;;
40951;SDS011;26682;51.660;19.338;2024-02-23T06:34:53;8.40;;;6.13;;
40951;SDS011;26682;51.660;19.338;2024-02-23T06:37:41;10.07;;;7.10;;
40951;SDS011;26682;51.660;19.338;2024-02-23T06:40:23;12.57;;;8.13;;
40951;SDS011;26682;51.660;19.338;2024-02-23T06:43:13;10.43;;;7.80;;
40951;SDS011;26682;51.660;19.338;2024-02-23T06:45:55;10.20;;;7.55;;
40951;SDS011;26682;51.660;19.338;2024-02-23T06:48:37;12.57;;;9.35;;
40951;SDS011;26682;51.660;19.338;2024-02-23T06:51:20;26.08;;;17.70;;
40951;SDS011;26682;51.660;19.338;2024-02-23T06:54:03;41.00;;;22.55;;
40951;SDS011;26682;51.660;19.338;2024-02-23T06:56:46;40.88;;;23.90;;
40951;SDS011;26682;51.660;19.338;2024-02-23T06:59:29;16.02;;;9.20;;
40951;SDS011;26682;51.660;19.338;2024-02-23T07:02:12;20.58;;;12.73;;
40951;SDS011;26682;51.660;19.338;2024-02-23T07:04:55;19.65;;;13.93;;
40951;SDS011;26682;51.660;19.338;2024-02-23T07:07:38;16.80;;;11.75;;
40951;SDS011;26682;51.660;19.338;2024-02-23T07:10:22;14.52;;;10.32;;
40951;SDS011;26682;51.660;19.338;2024-02-23T07:13:06;15.63;;;10.98;;
40951;SDS011;26682;51.660;19.338;2024-02-23T07:15:49;10.10;;;7.40;;
40951;SDS011;26682;51.660;19.338;2024-02-23T07:18:31;13.35;;;8.70;;
40951;SDS011;26682;51.660;19.338;2024-02-23T07:21:17;45.25;;;20.40;;
40951;SDS011;26682;51.660;19.338;2024-02-23T07:23:59;31.55;;;14.10;;
40951;SDS011;26682;51.660;19.338;2024-02-23T07:26:42;31.35;;;14.40;;
40951;SDS011;26682;51.660;19.338;2024-02-23T07:29:24;23.75;;;15.93;;
40951;SDS011;26682;51.660;19.338;2024-02-23T07:32:07;47.05;;;23.25;;
40951;SDS011;26682;51.660;19.338;2024-02-23T07:34:50;17.30;;;13.30;;
40951;SDS011;26682;51.660;19.338;2024-02-23T07:37:32;13.57;;;9.82;;
40951;SDS011;26682;51.660;19.338;2024-02-23T07:40:15;22.67;;;11.70;;
40951;SDS011;26682;51.660;19.338;2024-02-23T07:43:02;48.03;;;19.70;;
40951;SDS011;26682;51.660;19.338;2024-02-23T07:45:44;19.92;;;11.32;;
40951;SDS011;26682;51.660;19.338;2024-02-23T07:48:27;18.33;;;11.60;;
40951;SDS011;26682;51.660;19.338;2024-02-23T07:51:10;23.05;;;13.52;;
40951;SDS011;26682;51.660;19.338;2024-02-23T07:53:52;20.75;;;14.80;;
40951;SDS011;26682;51.660;19.338;2024-02-23T07:56:35;14.73;;;8.40;;
40951;SDS011;26682;51.660;19.338;2024-02-23T07:59:17;11.73;;;9.50;;
40951;SDS011;26682;51.660;19.338;2024-02-23T08:02:00;22.73;;;14.95;;
40951;SDS011;26682;51.660;19.338;2024-02-23T08:04:42;13.60;;;10.65;;
40951;SDS011;26682;51.660;19.338;2024-02-23T08:07:25;14.63;;;10.63;;
40951;SDS011;26682;51.660;19.338;2024-02-23T08:10:08;25.77;;;13.15;;
40951;SDS011;26682;51.660;19.338;2024-02-23T08:12:52;14.48;;;8.30;;
40951;SDS011;26682;51.660;19.338;2024-02-23T08:15:35;13.85;;;9.93;;
40951;SDS011;26682;51.660;19.338;2024-02-23T08:18:17;16.27;;;10.93;;
40951;SDS011;26682;51.660;19.338;2024-02-23T08:21:03;12.45;;;10.20;;
40951;SDS011;26682;51.660;19.338;2024-02-23T08:23:47;13.45;;;9.35;;
40951;SDS011;26682;51.660;19.338;2024-02-23T08:26:30;13.75;;;12.32;;
40951;SDS011;26682;51.660;19.338;2024-02-23T08:29:12;21.88;;;14.98;;
40951;SDS011;26682;51.660;19.338;2024-02-23T08:31:55;14.50;;;10.75;;
40951;SDS011;26682;51.660;19.338;2024-02-23T08:34:38;17.40;;;11.60;;
40951;SDS011;26682;51.660;19.338;2024-02-23T08:37:21;15.77;;;10.73;;
40951;SDS011;26682;51.660;19.338;2024-02-23T08:40:03;24.48;;;14.57;;
40951;SDS011;26682;51.660;19.338;2024-02-23T08:42:48;13.77;;;12.38;;
40951;SDS011;26682;51.660;19.338;2024-02-23T08:45:31;18.83;;;16.83;;
40951;SDS011;26682;51.660;19.338;2024-02-23T08:48:14;18.52;;;15.85;;
40951;SDS011;26682;51.660;19.338;2024-02-23T08:50:57;25.10;;;22.50;;
40951;SDS011;26682;51.660;19.338;2024-02-23T08:53:39;25.00;;;21.90;;
40951;SDS011;26682;51.660;19.338;2024-02-23T08:56:22;33.22;;;29.50;;
40951;SDS011;26682;51.660;19.338;2024-02-23T08:59:04;10.80;;;9.40;;
40951;SDS011;26682;51.660;19.338;2024-02-23T09:01:47;23.70;;;21.27;;
40951;SDS011;26682;51.660;19.338;2024-02-23T09:04:29;130.45;;;93.32;;
40951;SDS011;26682;51.660;19.338;2024-02-23T09:07:12;43.47;;;29.13;;
40951;SDS011;26682;51.660;19.338;2024-02-23T09:09:55;138.32;;;101.15;;
40951;SDS011;26682;51.660;19.338;2024-02-23T09:12:38;101.43;;;70.05;;
40951;SDS011;26682;51.660;19.338;2024-02-23T09:15:21;20.05;;;14.52;;
40951;SDS011;26682;51.660;19.338;2024-02-23T09:18:03;21.25;;;15.95;;
40951;SDS011;26682;51.660;19.338;2024-02-23T09:20:46;23.27;;;17.20;;
40951;SDS011;26682;51.660;19.338;2024-02-23T09:23:29;12.43;;;9.20;;
40951;SDS011;26682;51.660;19.338;2024-02-23T09:26:12;13.13;;;8.85;;
40951;SDS011;26682;51.660;19.338;2024-02-23T09:28:54;14.20;;;10.52;;
40951;SDS011;26682;51.660;19.338;2024-02-23T09:31:38;12.25;;;8.15;;
40951;SDS011;26682;51.660;19.338;2024-02-23T09:34:20;31.70;;;17.00;;
40951;SDS011;26682;51.660;19.338;2024-02-23T09:37:03;18.60;;;12.48;;
40951;SDS011;26682;51.660;19.338;2024-02-23T09:39:45;14.85;;;10.55;;
40951;SDS011;26682;51.660;19.338;2024-02-23T09:42:28;18.90;;;13.15;;
40951;SDS011;26682;51.660;19.338;2024-02-23T09:45:14;16.67;;;12.40;;
40951;SDS011;26682;51.660;19.338;2024-02-23T09:47:57;23.70;;;21.33;;
40951;SDS011;26682;51.660;19.338;2024-02-23T09:50:40;31.25;;;18.48;;
40951;SDS011;26682;51.660;19.338;2024-02-23T09:53:24;16.95;;;11.90;;
40951;SDS011;26682;51.660;19.338;2024-02-23T09:56:07;32.90;;;17.02;;
40951;SDS011;26682;51.660;19.338;2024-02-23T09:58:51;16.02;;;9.85;;
40951;SDS011;26682;51.660;19.338;2024-02-23T10:01:34;36.63;;;18.65;;
40951;SDS011;26682;51.660;19.338;2024-02-23T10:04:18;42.63;;;26.15;;
40951;SDS011;26682;51.660;19.338;2024-02-23T10:07:01;23.90;;;15.40;;
40951;SDS011;26682;51.660;19.338;2024-02-23T10:09:46;47.60;;;31.83;;
40951;SDS011;26682;51.660;19.338;2024-02-23T10:12:29;57.42;;;28.45;;
40951;SDS011;26682;51.660;19.338;2024-02-23T10:15:11;25.20;;;16.90;;
40951;SDS011;26682;51.660;19.338;2024-02-23T10:17:54;66.82;;;33.33;;
40951;SDS011;26682;51.660;19.338;2024-02-23T10:20:37;36.85;;;27.38;;
40951;SDS011;26682;51.660;19.338;2024-02-23T10:23:20;28.15;;;16.75;;
40951;SDS011;26682;51.660;19.338;2024-02-23T10:26:04;29.20;;;16.38;;
40951;SDS011;26682;51.660;19.338;2024-02-23T10:28:47;23.38;;;21.05;;
40951;SDS011;26682;51.660;19.338;2024-02-23T10:31:34;30.92;;;20.48;;
40951;SDS011;26682;51.660;19.338;2024-02-23T10:34:20;36.38;;;27.40;;
40951;SDS011;26682;51.660;19.338;2024-02-23T10:37:03;38.42;;;27.75;;
40951;SDS011;26682;51.660;19.338;2024-02-23T10:39:48;20.48;;;14.15;;
40951;SDS011;26682;51.660;19.338;2024-02-23T10:42:36;17.20;;;13.18;;
40951;SDS011;26682;51.660;19.338;2024-02-23T10:45:19;20.83;;;15.55;;
40951;SDS011;26682;51.660;19.338;2024-02-23T10:48:09;26.17;;;20.58;;
40951;SDS011;26682;51.660;19.338;2024-02-23T10:50:53;23.52;;;18.52;;
40951;SDS011;26682;51.660;19.338;2024-02-23T10:53:38;12.23;;;8.32;;
40951;SDS011;26682;51.660;19.338;2024-02-23T10:56:22;17.90;;;12.65;;
40951;SDS011;26682;51.660;19.338;2024-02-23T10:59:07;15.60;;;13.07;;
40951;SDS011;26682;51.660;19.338;2024-02-23T11:01:53;7.20;;;5.65;;
40951;SDS011;26682;51.660;19.338;2024-02-23T11:04:39;11.48;;;8.63;;
40951;SDS011;26682;51.660;19.338;2024-02-23T11:07:22;17.08;;;12.13;;
40951;SDS011;26682;51.660;19.338;2024-02-23T11:10:07;10.43;;;8.25;;
40951;SDS011;26682;51.660;19.338;2024-02-23T11:12:59;18.77;;;12.50;;
40951;SDS011;26682;51.660;19.338;2024-02-23T11:15:42;20.58;;;15.55;;
40951;SDS011;26682;51.660;19.338;2024-02-23T11:18:29;16.42;;;11.55;;
40951;SDS011;26682;51.660;19.338;2024-02-23T11:21:14;12.68;;;10.30;;
40951;SDS011;26682;51.660;19.338;2024-02-23T11:23:56;15.68;;;12.20;;
40951;SDS011;26682;51.660;19.338;2024-02-23T11:26:48;24.52;;;15.90;;
40951;SDS011;26682;51.660;19.338;2024-02-23T11:29:31;23.10;;;16.95;;
40951;SDS011;26682;51.660;19.338;2024-02-23T11:32:15;17.50;;;13.73;;
40951;SDS011;26682;51.660;19.338;2024-02-23T11:34:58;15.23;;;12.32;;
40951;SDS011;26682;51.660;19.338;2024-02-23T11:37:47;20.30;;;17.65;;
40951;SDS011;26682;51.660;19.338;2024-02-23T11:40:38;14.63;;;13.07;;
40951;SDS011;26682;51.660;19.338;2024-02-23T11:43:21;26.25;;;23.83;;
40951;SDS011;26682;51.660;19.338;2024-02-23T11:46:05;12.93;;;10.93;;
40951;SDS011;26682;51.660;19.338;2024-02-23T11:48:48;9.82;;;8.13;;
40951;SDS011;26682;51.660;19.338;2024-02-23T11:51:35;14.50;;;12.98;;
40951;SDS011;26682;51.660;19.338;2024-02-23T11:54:19;15.88;;;14.32;;
40951;SDS011;26682;51.660;19.338;2024-02-23T11:57:03;14.85;;;13.35;;
40951;SDS011;26682;51.660;19.338;2024-02-23T11:59:46;10.73;;;8.98;;
40951;SDS011;26682;51.660;19.338;2024-02-23T12:02:28;13.68;;;10.98;;
40951;SDS011;26682;51.660;19.338;2024-02-23T12:05:14;14.43;;;10.45;;
40951;SDS011;26682;51.660;19.338;2024-02-23T12:07:56;12.88;;;10.60;;
40951;SDS011;26682;51.660;19.338;2024-02-23T12:10:40;16.98;;;15.20;;
40951;SDS011;26682;51.660;19.338;2024-02-23T12:13:23;18.02;;;15.32;;
40951;SDS011;26682;51.660;19.338;2024-02-23T12:16:09;14.90;;;12.75;;
40951;SDS011;26682;51.660;19.338;2024-02-23T12:18:55;7.97;;;6.57;;
40951;SDS011;26682;51.660;19.338;2024-02-23T12:21:38;10.48;;;7.35;;
40951;SDS011;26682;51.660;19.338;2024-02-23T12:24:20;10.43;;;9.30;;
40951;SDS011;26682;51.660;19.338;2024-02-23T12:27:05;14.55;;;13.15;;
40951;SDS011;26682;51.660;19.338;2024-02-23T12:29:51;10.20;;;8.88;;
40951;SDS011;26682;51.660;19.338;2024-02-23T12:32:35;19.60;;;16.35;;
40951;SDS011;26682;51.660;19.338;2024-02-23T12:35:17;9.60;;;8.00;;
40951;SDS011;26682;51.660;19.338;2024-02-23T12:38:00;11.50;;;8.25;;
40951;SDS011;26682;51.660;19.338;2024-02-23T12:40:42;14.02;;;10.27;;
40951;SDS011;26682;51.660;19.338;2024-02-23T12:43:25;15.15;;;12.95;;
40951;SDS011;26682;51.660;19.338;2024-02-23T12:46:08;13.02;;;10.80;;
40951;SDS011;26682;51.660;19.338;2024-02-23T12:48:51;11.55;;;9.60;;
40951;SDS011;26682;51.660;19.338;2024-02-23T12:51:33;8.63;;;6.50;;
40951;SDS011;26682;51.660;19.338;2024-02-23T12:54:16;9.88;;;6.43;;
40951;SDS011;26682;51.660;19.338;2024-02-23T12:57:05;9.68;;;7.05;;
40951;SDS011;26682;51.660;19.338;2024-02-23T12:59:47;8.43;;;6.35;;
40951;SDS011;26682;51.660;19.338;2024-02-23T13:02:30;9.68;;;7.10;;
40951;SDS011;26682;51.660;19.338;2024-02-23T13:05:12;9.90;;;7.10;;
40951;SDS011;26682;51.660;19.338;2024-02-23T13:07:55;9.95;;;7.60;;
40951;SDS011;26682;51.660;19.338;2024-02-23T13:10:38;9.38;;;6.10;;
40951;SDS011;26682;51.660;19.338;2024-02-23T13:13:21;8.80;;;6.40;;
40951;SDS011;26682;51.660;19.338;2024-02-23T13:16:04;9.73;;;6.70;;
40951;SDS011;26682;51.660;19.338;2024-02-23T13:18:46;8.57;;;6.30;;
40951;SDS011;26682;51.660;19.338;2024-02-23T13:21:29;8.68;;;6.32;;
40951;SDS011;26682;51.660;19.338;2024-02-23T13:24:15;9.10;;;7.50;;
40951;SDS011;26682;51.660;19.338;2024-02-23T13:26:57;9.35;;;6.70;;
40951;SDS011;26682;51.660;19.338;2024-02-23T13:29:40;8.20;;;6.22;;
40951;SDS011;26682;51.660;19.338;2024-02-23T13:32:22;12.48;;;7.95;;
40951;SDS011;26682;51.660;19.338;2024-02-23T13:35:05;8.10;;;6.90;;
40951;SDS011;26682;51.660;19.338;2024-02-23T13:37:48;8.95;;;6.60;;
40951;SDS011;26682;51.660;19.338;2024-02-23T13:40:32;10.13;;;6.38;;
40951;SDS011;26682;51.660;19.338;2024-02-23T13:43:15;8.40;;;7.10;;
40951;SDS011;26682;51.660;19.338;2024-02-23T13:45:57;8.98;;;6.68;;
40951;SDS011;26682;51.660;19.338;2024-02-23T13:48:39;10.57;;;7.20;;
40951;SDS011;26682;51.660;19.338;2024-02-23T13:51:22;10.48;;;7.53;;
40951;SDS011;26682;51.660;19.338;2024-02-23T13:54:14;12.30;;;7.93;;
40951;SDS011;26682;51.660;19.338;2024-02-23T13:56:56;14.88;;;8.82;;
40951;SDS011;26682;51.660;19.338;2024-02-23T13:59:39;12.68;;;8.98;;
40951;SDS011;26682;51.660;19.338;2024-02-23T14:02:25;12.23;;;8.57;;
40951;SDS011;26682;51.660;19.338;2024-02-23T14:05:15;11.32;;;8.68;;
40951;SDS011;26682;51.660;19.338;2024-02-23T14:08:00;15.52;;;10.48;;
40951;SDS011;26682;51.660;19.338;2024-02-23T14:10:42;15.23;;;10.40;;
40951;SDS011;26682;51.660;19.338;2024-02-23T14:13:25;10.38;;;7.95;;
40951;SDS011;26682;51.660;19.338;2024-02-23T14:16:08;12.20;;;9.40;;
40951;SDS011;26682;51.660;19.338;2024-02-23T14:18:50;10.52;;;8.35;;
40951;SDS011;26682;51.660;19.338;2024-02-23T14:21:33;11.57;;;7.95;;
40951;SDS011;26682;51.660;19.338;2024-02-23T14:24:17;13.10;;;9.65;;
40951;SDS011;26682;51.660;19.338;2024-02-23T14:27:00;17.42;;;11.73;;
40951;SDS011;26682;51.660;19.338;2024-02-23T14:29:43;15.38;;;12.15;;
40951;SDS011;26682;51.660;19.338;2024-02-23T14:32:39;14.52;;;10.93;;
40951;SDS011;26682;51.660;19.338;2024-02-23T14:35:24;15.18;;;11.45;;
40951;SDS011;26682;51.660;19.338;2024-02-23T14:38:07;19.92;;;13.80;;
40951;SDS011;26682;51.660;19.338;2024-02-23T14:40:49;20.73;;;15.73;;
40951;SDS011;26682;51.660;19.338;2024-02-23T14:43:32;31.60;;;20.63;;
40951;SDS011;26682;51.660;19.338;2024-02-23T14:46:14;23.67;;;16.02;;
40951;SDS011;26682;51.660;19.338;2024-02-23T14:48:57;20.08;;;13.48;;
40951;SDS011;26682;51.660;19.338;2024-02-23T14:51:39;11.88;;;9.75;;
40951;SDS011;26682;51.660;19.338;2024-02-23T14:54:25;11.13;;;6.53;;
40951;SDS011;26682;51.660;19.338;2024-02-23T14:57:07;5.15;;;3.80;;
40951;SDS011;26682;51.660;19.338;2024-02-23T14:59:50;6.45;;;4.38;;
40951;SDS011;26682;51.660;19.338;2024-02-23T15:02:32;9.50;;;5.78;;
40951;SDS011;26682;51.660;19.338;2024-02-23T15:05:15;8.48;;;4.72;;
40951;SDS011;26682;51.660;19.338;2024-02-23T15:07:59;9.23;;;6.65;;
40951;SDS011;26682;51.660;19.338;2024-02-23T15:10:42;12.27;;;9.00;;
40951;SDS011;26682;51.660;19.338;2024-02-23T15:13:25;29.42;;;17.45;;
40951;SDS011;26682;51.660;19.338;2024-02-23T15:16:09;36.10;;;25.50;;
40951;SDS011;26682;51.660;19.338;2024-02-23T15:18:51;36.83;;;25.90;;
40951;SDS011;26682;51.660;19.338;2024-02-23T15:21:34;34.00;;;23.42;;
40951;SDS011;26682;51.660;19.338;2024-02-23T15:24:21;27.10;;;18.92;;
40951;SDS011;26682;51.660;19.338;2024-02-23T15:27:06;36.30;;;21.42;;
40951;SDS011;26682;51.660;19.338;2024-02-23T15:29:48;38.28;;;24.95;;
40951;SDS011;26682;51.660;19.338;2024-02-23T15:32:31;31.73;;;22.95;;
40951;SDS011;26682;51.660;19.338;2024-02-23T15:35:14;31.80;;;20.85;;
40951;SDS011;26682;51.660;19.338;2024-02-23T15:37:57;27.00;;;17.65;;
40951;SDS011;26682;51.660;19.338;2024-02-23T15:40:39;18.13;;;12.40;;
40951;SDS011;26682;51.660;19.338;2024-02-23T15:43:22;16.38;;;10.98;;
40951;SDS011;26682;51.660;19.338;2024-02-23T15:46:04;24.23;;;17.38;;
40951;SDS011;26682;51.660;19.338;2024-02-23T15:48:47;41.17;;;29.38;;
40951;SDS011;26682;51.660;19.338;2024-02-23T15:51:30;54.63;;;34.72;;
40951;SDS011;26682;51.660;19.338;2024-02-23T15:54:33;51.05;;;35.05;;